Tucson, AZ

1:55 PM MST on September 30, 2014 (GMT -0700)
Tucson International | Change Station
CLOSE
Current Station
Airport
Location: Tucson,
Elevation: 2556 ft
Nearby Weather Stations

Elev 2556 ft 32.13 °N, 110.96 °W | Updated 1 hour ago

Clear
Clear
85 °F
Feels Like 85 °F
N
0
Wind Variable Wind from North

Today
High -- | Low -- °F
--% Chance of Precip.
Yesterday
High -- | Low -- °F
Precip. -- in
6:17 AM 6:09 PM
Waxing Crescent, 40% visible
Pressure 29.78 in
Visibility 10.0 miles
Clouds Clear
Dew Point 32 °F
Humidity 15%
Rainfall 0.00 in
Snow Depth 0 in , 21 in , 0 in
UV 9 out of 12
Pollen 6.00 out of 12
Air Quality Not available.
Flu Activity Not available.
METAR KTUS 301953Z 00000KT 10SM CLR 29/00 A2990 RMK AO2 SLP082 T02940000

More Conditions Fewer Conditions

Pressure 29.78 in
Visibility 10.0 miles
Clouds Clear
Dew Point 32 °F
Humidity 15%
Rainfall 0.00 in
Snow Depth 0 in , 21 in , 0 in
UV 9 out of 12
Pollen 6.00 out of 12
Air Quality Not available.
Flu Activity Not available.
METAR KTUS 301953Z 00000KT 10SM CLR 29/00 A2990 RMK AO2 SLP082 T02940000

More Conditions Fewer Conditions

10-Day Weather Forecast

Almanac

Astronomy

Sep. 30, 2014 Rise Set
Actual Time 6:17 AM MST 6:09 PM MST
Civil Twilight 5:52 AM MST 6:34 PM MST
Nautical Twilight 5:24 AM MST 7:02 PM MST
Astronomical Twilight 4:55 AM MST 7:30 PM MST
Moon 12:12 PM MST 10:58 PM MST
Length of Visible Light 12h 41m
Length of Day
11h 52m
Tomorrow will be 1m 56s shorter.
Waxing Crescent, 40% of the Moon is Illuminated
Today
Waxing Crescent
Oct 1
First Quarter
Oct 8
Full
Oct 15
Last Quarter
Oct 23
New

Today's Extremes

State Highs State Lows

Community

WunderPhotos

Upload Photos

1,757,743 photos uploaded!

Nearby

Snow Depth

Station Depth Elevation
Snowslide Canyon 0 in 9730 ft
Beaver Head 21 in 7990 ft
Promontory 0 in 7930 ft
Coronado Trail 0 in 8400 ft
Workman Creek 1 in 6900 ft

Earthquake Activity

City Distance Mag. Time & Date
No recent earthquake activity has been reported nearby.
Minimum magnitude displayed is 2.5.

Coastal Water Temperatures

Place Temperature
No Stations Reporting

Nearby Weather Stations